sensor_id;sensor_type;location;lat;lon;timestamp;pressure;altitude;pressure_sealevel;temperature;humidity
30339;BME280;795;49.296;11.348;2023-06-22T00:00:04;96691.81;;;17.79;100.00
30339;BME280;795;49.296;11.348;2023-06-22T00:02:37;96688.25;;;17.65;100.00
30339;BME280;795;49.296;11.348;2023-06-22T00:05:05;96703.94;;;17.76;100.00
30339;BME280;795;49.296;11.348;2023-06-22T00:07:32;96642.00;;;17.39;100.00
30339;BME280;795;49.296;11.348;2023-06-22T00:09:59;96700.81;;;17.73;100.00
30339;BME280;795;49.296;11.348;2023-06-22T00:12:26;96706.88;;;17.81;100.00
30339;BME280;795;49.296;11.348;2023-06-22T00:14:53;96708.34;;;17.77;100.00
30339;BME280;795;49.296;11.348;2023-06-22T00:17:20;96658.09;;;17.47;100.00
30339;BME280;795;49.296;11.348;2023-06-22T00:19:50;96713.34;;;17.67;100.00
30339;BME280;795;49.296;11.348;2023-06-22T00:22:21;96705.81;;;17.63;100.00
30339;BME280;795;49.296;11.348;2023-06-22T00:24:56;96706.22;;;17.60;100.00
30339;BME280;795;49.296;11.348;2023-06-22T00:27:23;96721.44;;;17.54;100.00
30339;BME280;795;49.296;11.348;2023-06-22T00:29:50;96716.75;;;17.42;100.00
30339;BME280;795;49.296;11.348;2023-06-22T00:32:17;96732.19;;;17.35;100.00
30339;BME280;795;49.296;11.348;2023-06-22T00:34:45;96717.28;;;17.17;100.00
30339;BME280;795;49.296;11.348;2023-06-22T00:37:12;96689.91;;;16.99;100.00
30339;BME280;795;49.296;11.348;2023-06-22T00:39:39;96727.38;;;17.37;100.00
30339;BME280;795;49.296;11.348;2023-06-22T00:42:06;96711.09;;;17.30;100.00
30339;BME280;795;49.296;11.348;2023-06-22T00:44:34;96723.41;;;17.26;100.00
30339;BME280;795;49.296;11.348;2023-06-22T00:47:03;96670.28;;;16.97;100.00
30339;BME280;795;49.296;11.348;2023-06-22T00:49:30;96712.31;;;17.21;100.00
30339;BME280;795;49.296;11.348;2023-06-22T00:51:57;96689.91;;;17.06;100.00
30339;BME280;795;49.296;11.348;2023-06-22T00:54:25;96685.47;;;16.92;100.00
30339;BME280;795;49.296;11.348;2023-06-22T00:56:54;96699.69;;;17.00;100.00
30339;BME280;795;49.296;11.348;2023-06-22T00:59:24;96680.53;;;17.08;100.00
30339;BME280;795;49.296;11.348;2023-06-22T01:01:52;96637.66;;;16.78;100.00
30339;BME280;795;49.296;11.348;2023-06-22T01:04:21;96667.72;;;16.83;100.00
30339;BME280;795;49.296;11.348;2023-06-22T01:07:05;96712.91;;;17.10;100.00
30339;BME280;795;49.296;11.348;2023-06-22T01:10:21;96704.53;;;17.05;100.00
30339;BME280;795;49.296;11.348;2023-06-22T01:13:01;96695.56;;;17.04;100.00
30339;BME280;795;49.296;11.348;2023-06-22T01:15:46;96723.34;;;17.13;100.00
30339;BME280;795;49.296;11.348;2023-06-22T01:18:19;96655.13;;;16.69;100.00
30339;BME280;795;49.296;11.348;2023-06-22T01:20:49;96679.81;;;16.87;100.00
30339;BME280;795;49.296;11.348;2023-06-22T01:26:28;96689.97;;;17.19;100.00
30339;BME280;795;49.296;11.348;2023-06-22T01:29:06;96689.16;;;17.25;100.00
30339;BME280;795;49.296;11.348;2023-06-22T01:31:35;96636.88;;;16.97;100.00
30339;BME280;795;49.296;11.348;2023-06-22T01:34:07;96675.16;;;17.21;100.00
30339;BME280;795;49.296;11.348;2023-06-22T01:36:38;96647.34;;;17.06;100.00
30339;BME280;795;49.296;11.348;2023-06-22T01:39:07;96634.41;;;17.02;100.00
30339;BME280;795;49.296;11.348;2023-06-22T01:41:38;96665.56;;;17.19;100.00
30339;BME280;795;49.296;11.348;2023-06-22T01:44:08;96615.34;;;16.82;100.00
30339;BME280;795;49.296;11.348;2023-06-22T01:46:37;96652.72;;;16.93;100.00
30339;BME280;795;49.296;11.348;2023-06-22T01:49:06;96637.69;;;16.91;100.00
30339;BME280;795;49.296;11.348;2023-06-22T01:51:33;96667.19;;;17.07;100.00
30339;BME280;795;49.296;11.348;2023-06-22T01:54:01;96549.75;;;16.18;100.00
30339;BME280;795;49.296;11.348;2023-06-22T01:56:29;96649.75;;;16.75;100.00
30339;BME280;795;49.296;11.348;2023-06-22T01:59:23;96676.88;;;16.82;100.00
30339;BME280;795;49.296;11.348;2023-06-22T02:02:08;96624.31;;;16.42;100.00
30339;BME280;795;49.296;11.348;2023-06-22T02:04:53;96654.91;;;16.64;100.00
30339;BME280;795;49.296;11.348;2023-06-22T02:07:28;96641.28;;;16.57;100.00
30339;BME280;795;49.296;11.348;2023-06-22T02:09:59;96630.53;;;16.42;100.00
30339;BME280;795;49.296;11.348;2023-06-22T02:12:29;96643.31;;;16.48;100.00
30339;BME280;795;49.296;11.348;2023-06-22T02:14:59;96567.66;;;16.13;100.00
30339;BME280;795;49.296;11.348;2023-06-22T02:17:28;96666.59;;;16.71;100.00
30339;BME280;795;49.296;11.348;2023-06-22T02:20:05;96668.88;;;16.67;100.00
30339;BME280;795;49.296;11.348;2023-06-22T02:22:34;96668.50;;;16.77;100.00
30339;BME280;795;49.296;11.348;2023-06-22T02:25:02;96668.09;;;16.73;100.00
30339;BME280;795;49.296;11.348;2023-06-22T02:27:29;96667.66;;;16.76;100.00
30339;BME280;795;49.296;11.348;2023-06-22T02:29:57;96680.41;;;16.76;100.00
30339;BME280;795;49.296;11.348;2023-06-22T02:32:24;96679.09;;;16.72;100.00
30339;BME280;795;49.296;11.348;2023-06-22T02:34:52;96651.97;;;16.37;100.00
30339;BME280;795;49.296;11.348;2023-06-22T02:37:19;96678.75;;;16.47;100.00
30339;BME280;795;49.296;11.348;2023-06-22T02:39:46;96662.00;;;16.37;100.00
30339;BME280;795;49.296;11.348;2023-06-22T02:42:13;96639.09;;;16.39;100.00
30339;BME280;795;49.296;11.348;2023-06-22T02:44:42;96682.28;;;16.75;100.00
30339;BME280;795;49.296;11.348;2023-06-22T02:47:09;96629.41;;;16.51;100.00
30339;BME280;795;49.296;11.348;2023-06-22T02:49:36;96656.03;;;16.82;100.00
30339;BME280;795;49.296;11.348;2023-06-22T02:52:03;96688.66;;;17.02;100.00
30339;BME280;795;49.296;11.348;2023-06-22T02:54:30;96695.56;;;17.04;100.00
30339;BME280;795;49.296;11.348;2023-06-22T02:56:57;96706.19;;;17.06;100.00
30339;BME280;795;49.296;11.348;2023-06-22T02:59:24;96687.34;;;16.91;100.00
30339;BME280;795;49.296;11.348;2023-06-22T03:01:51;96660.31;;;16.64;100.00
30339;BME280;795;49.296;11.348;2023-06-22T03:04:19;96736.03;;;17.06;100.00
30339;BME280;795;49.296;11.348;2023-06-22T03:06:46;96673.00;;;16.56;100.00
30339;BME280;795;49.296;11.348;2023-06-22T03:09:17;96673.63;;;16.58;100.00
30339;BME280;795;49.296;11.348;2023-06-22T03:11:44;96750.19;;;16.95;100.00
30339;BME280;795;49.296;11.348;2023-06-22T03:14:11;96762.44;;;16.91;100.00
30339;BME280;795;49.296;11.348;2023-06-22T03:16:38;96719.91;;;16.57;100.00
30339;BME280;795;49.296;11.348;2023-06-22T03:19:07;96782.09;;;16.93;100.00
30339;BME280;795;49.296;11.348;2023-06-22T03:21:34;96716.75;;;16.53;100.00
30339;BME280;795;49.296;11.348;2023-06-22T03:24:01;96702.91;;;16.42;100.00
30339;BME280;795;49.296;11.348;2023-06-22T03:26:28;96792.09;;;16.92;100.00
30339;BME280;795;49.296;11.348;2023-06-22T03:28:56;96790.88;;;16.95;100.00
30339;BME280;795;49.296;11.348;2023-06-22T03:31:24;96690.84;;;16.23;100.00
30339;BME280;795;49.296;11.348;2023-06-22T03:33:51;96775.94;;;16.78;100.00
30339;BME280;795;49.296;11.348;2023-06-22T03:36:19;96757.72;;;16.72;100.00
30339;BME280;795;49.296;11.348;2023-06-22T03:38:48;96787.34;;;17.01;100.00
30339;BME280;795;49.296;11.348;2023-06-22T03:41:15;96793.00;;;17.06;100.00
30339;BME280;795;49.296;11.348;2023-06-22T03:43:42;96753.19;;;16.79;100.00
30339;BME280;795;49.296;11.348;2023-06-22T03:46:10;96783.22;;;17.05;100.00
30339;BME280;795;49.296;11.348;2023-06-22T03:48:37;96770.91;;;17.09;100.00
30339;BME280;795;49.296;11.348;2023-06-22T03:51:04;96695.31;;;16.58;100.00
30339;BME280;795;49.296;11.348;2023-06-22T03:53:31;96688.16;;;16.51;100.00
30339;BME280;795;49.296;11.348;2023-06-22T03:55:58;96768.97;;;17.03;100.00
30339;BME280;795;49.296;11.348;2023-06-22T03:58:25;96758.13;;;17.03;100.00
30339;BME280;795;49.296;11.348;2023-06-22T04:00:53;96672.66;;;16.45;100.00
30339;BME280;795;49.296;11.348;2023-06-22T04:03:20;96654.22;;;16.55;100.00
30339;BME280;795;49.296;11.348;2023-06-22T04:05:48;96738.75;;;17.06;100.00
30339;BME280;795;49.296;11.348;2023-06-22T04:08:16;96694.00;;;16.89;100.00
30339;BME280;795;49.296;11.348;2023-06-22T04:10:43;96697.31;;;16.84;100.00
30339;BME280;795;49.296;11.348;2023-06-22T04:13:10;96711.19;;;17.02;100.00
30339;BME280;795;49.296;11.348;2023-06-22T04:15:37;96710.78;;;17.05;100.00
30339;BME280;795;49.296;11.348;2023-06-22T04:18:04;96702.06;;;17.16;100.00
30339;BME280;795;49.296;11.348;2023-06-22T04:20:32;96733.25;;;17.40;100.00
30339;BME280;795;49.296;11.348;2023-06-22T04:23:00;96678.69;;;17.15;100.00
30339;BME280;795;49.296;11.348;2023-06-22T04:25:26;96732.28;;;17.54;100.00
30339;BME280;795;49.296;11.348;2023-06-22T04:27:53;96698.38;;;17.37;100.00
30339;BME280;795;49.296;11.348;2023-06-22T04:30:20;96720.63;;;17.67;100.00
30339;BME280;795;49.296;11.348;2023-06-22T04:32:47;96660.38;;;17.24;100.00
30339;BME280;795;49.296;11.348;2023-06-22T04:35:24;96714.81;;;17.76;100.00
30339;BME280;795;49.296;11.348;2023-06-22T04:37:53;96632.41;;;17.37;100.00
30339;BME280;795;49.296;11.348;2023-06-22T04:40:23;96610.28;;;17.40;100.00
30339;BME280;795;49.296;11.348;2023-06-22T04:42:50;96669.88;;;17.80;100.00
30339;BME280;795;49.296;11.348;2023-06-22T04:45:21;96652.56;;;17.81;100.00
30339;BME280;795;49.296;11.348;2023-06-22T04:47:49;96666.56;;;17.92;100.00
30339;BME280;795;49.296;11.348;2023-06-22T04:50:16;96655.25;;;18.14;100.00
30339;BME280;795;49.296;11.348;2023-06-22T04:52:44;96676.38;;;18.45;100.00
30339;BME280;795;49.296;11.348;2023-06-22T04:55:12;96672.56;;;18.66;100.00
30339;BME280;795;49.296;11.348;2023-06-22T04:57:41;96653.91;;;18.82;100.00
30339;BME280;795;49.296;11.348;2023-06-22T05:00:19;96594.97;;;18.63;100.00
30339;BME280;795;49.296;11.348;2023-06-22T05:02:47;96634.34;;;19.05;100.00
30339;BME280;795;49.296;11.348;2023-06-22T05:05:15;96569.38;;;18.77;100.00
30339;BME280;795;49.296;11.348;2023-06-22T05:07:46;96626.78;;;19.13;100.00
30339;BME280;795;49.296;11.348;2023-06-22T05:10:17;96611.28;;;19.14;100.00
30339;BME280;795;49.296;11.348;2023-06-22T05:12:45;96604.38;;;19.18;100.00
30339;BME280;795;49.296;11.348;2023-06-22T05:15:13;96544.25;;;18.88;100.00
30339;BME280;795;49.296;11.348;2023-06-22T05:17:40;96577.34;;;19.16;100.00
30339;BME280;795;49.296;11.348;2023-06-22T05:20:12;96589.38;;;19.40;100.00
30339;BME280;795;49.296;11.348;2023-06-22T05:22:40;96585.13;;;19.51;100.00
30339;BME280;795;49.296;11.348;2023-06-22T05:25:11;96602.34;;;19.76;100.00
30339;BME280;795;49.296;11.348;2023-06-22T05:27:38;96575.88;;;19.83;100.00
30339;BME280;795;49.296;11.348;2023-06-22T05:30:10;96582.59;;;20.05;100.00
30339;BME280;795;49.296;11.348;2023-06-22T05:32:38;96513.88;;;19.78;100.00
30339;BME280;795;49.296;11.348;2023-06-22T05:35:05;96559.88;;;20.36;100.00
30339;BME280;795;49.296;11.348;2023-06-22T05:37:32;96535.47;;;20.59;100.00
30339;BME280;795;49.296;11.348;2023-06-22T05:39:59;96504.69;;;20.52;100.00
30339;BME280;795;49.296;11.348;2023-06-22T05:42:26;96533.22;;;21.04;100.00
30339;BME280;795;49.296;11.348;2023-06-22T05:44:54;96550.69;;;21.44;100.00
30339;BME280;795;49.296;11.348;2023-06-22T05:47:21;96544.53;;;21.49;100.00
30339;BME280;795;49.296;11.348;2023-06-22T05:49:49;96539.44;;;21.52;100.00
30339;BME280;795;49.296;11.348;2023-06-22T05:52:16;96530.69;;;21.73;100.00
30339;BME280;795;49.296;11.348;2023-06-22T05:54:44;96522.56;;;21.97;100.00
30339;BME280;795;49.296;11.348;2023-06-22T05:57:11;96523.13;;;22.10;100.00
30339;BME280;795;49.296;11.348;2023-06-22T05:59:37;96510.53;;;22.21;100.00
30339;BME280;795;49.296;11.348;2023-06-22T06:02:05;96513.03;;;22.11;100.00
30339;BME280;795;49.296;11.348;2023-06-22T06:04:32;96511.81;;;22.30;100.00
30339;BME280;795;49.296;11.348;2023-06-22T06:06:59;96503.47;;;22.36;100.00
30339;BME280;795;49.296;11.348;2023-06-22T06:09:26;96494.44;;;22.36;100.00
30339;BME280;795;49.296;11.348;2023-06-22T06:11:53;96506.31;;;22.65;100.00
30339;BME280;795;49.296;11.348;2023-06-22T06:14:20;96497.50;;;22.51;100.00
30339;BME280;795;49.296;11.348;2023-06-22T06:16:49;96428.50;;;22.09;100.00
30339;BME280;795;49.296;11.348;2023-06-22T06:19:16;96506.78;;;22.73;100.00
30339;BME280;795;49.296;11.348;2023-06-22T06:21:43;96508.19;;;23.04;100.00
30339;BME280;795;49.296;11.348;2023-06-22T06:24:10;96502.03;;;23.53;100.00
30339;BME280;795;49.296;11.348;2023-06-22T06:26:37;96488.41;;;23.75;100.00
30339;BME280;795;49.296;11.348;2023-06-22T06:29:05;96507.47;;;24.03;100.00
30339;BME280;795;49.296;11.348;2023-06-22T06:31:32;96485.22;;;24.16;100.00
30339;BME280;795;49.296;11.348;2023-06-22T06:34:00;96496.66;;;24.30;100.00
30339;BME280;795;49.296;11.348;2023-06-22T06:36:27;96441.44;;;24.43;100.00
30339;BME280;795;49.296;11.348;2023-06-22T06:38:54;96404.47;;;24.51;100.00
30339;BME280;795;49.296;11.348;2023-06-22T06:41:21;96485.78;;;24.57;100.00
30339;BME280;795;49.296;11.348;2023-06-22T06:43:48;96491.41;;;24.67;100.00
30339;BME280;795;49.296;11.348;2023-06-22T06:46:15;96465.34;;;24.48;100.00
30339;BME280;795;49.296;11.348;2023-06-22T06:48:42;96461.03;;;24.13;100.00
30339;BME280;795;49.296;11.348;2023-06-22T06:51:09;96477.41;;;24.68;100.00
30339;BME280;795;49.296;11.348;2023-06-22T06:53:38;96453.25;;;24.87;100.00
30339;BME280;795;49.296;11.348;2023-06-22T06:56:05;96455.13;;;25.08;100.00
30339;BME280;795;49.296;11.348;2023-06-22T06:58:32;96464.44;;;25.07;100.00
30339;BME280;795;49.296;11.348;2023-06-22T07:00:59;96435.63;;;25.10;100.00
30339;BME280;795;49.296;11.348;2023-06-22T07:03:26;96447.94;;;25.34;100.00
30339;BME280;795;49.296;11.348;2023-06-22T07:05:53;96453.75;;;25.37;100.00
30339;BME280;795;49.296;11.348;2023-06-22T07:08:20;96457.41;;;25.43;100.00
30339;BME280;795;49.296;11.348;2023-06-22T07:10:47;96450.03;;;25.48;100.00
30339;BME280;795;49.296;11.348;2023-06-22T07:13:14;96460.88;;;25.33;100.00
30339;BME280;795;49.296;11.348;2023-06-22T07:15:41;96461.84;;;25.81;100.00
30339;BME280;795;49.296;11.348;2023-06-22T07:18:08;96465.81;;;25.95;100.00
30339;BME280;795;49.296;11.348;2023-06-22T07:20:36;96461.09;;;26.27;100.00
30339;BME280;795;49.296;11.348;2023-06-22T07:23:03;96453.13;;;26.77;97.43
30339;BME280;795;49.296;11.348;2023-06-22T07:25:30;96450.78;;;26.54;91.24
30339;BME280;795;49.296;11.348;2023-06-22T07:28:05;96446.72;;;26.72;91.95
30339;BME280;795;49.296;11.348;2023-06-22T07:30:33;96421.38;;;26.70;89.61
30339;BME280;795;49.296;11.348;2023-06-22T07:33:01;96453.16;;;26.87;91.60
30339;BME280;795;49.296;11.348;2023-06-22T07:35:31;96468.19;;;26.70;88.65
30339;BME280;795;49.296;11.348;2023-06-22T07:37:58;96463.66;;;26.95;88.83
30339;BME280;795;49.296;11.348;2023-06-22T07:40:27;96463.72;;;27.21;85.73
30339;BME280;795;49.296;11.348;2023-06-22T07:42:55;96449.31;;;26.93;86.56
30339;BME280;795;49.296;11.348;2023-06-22T07:45:22;96455.44;;;27.21;81.81
30339;BME280;795;49.296;11.348;2023-06-22T07:47:49;96429.00;;;27.35;82.38
30339;BME280;795;49.296;11.348;2023-06-22T07:50:17;96449.19;;;27.55;80.27
30339;BME280;795;49.296;11.348;2023-06-22T07:52:44;96442.81;;;28.31;73.51
30339;BME280;795;49.296;11.348;2023-06-22T07:55:11;96448.84;;;28.43;71.58
30339;BME280;795;49.296;11.348;2023-06-22T07:57:38;96413.75;;;28.48;69.14
30339;BME280;795;49.296;11.348;2023-06-22T08:00:06;96445.53;;;28.46;69.84
30339;BME280;795;49.296;11.348;2023-06-22T08:03:51;96412.50;;;27.90;70.70
30339;BME280;795;49.296;11.348;2023-06-22T08:06:18;96362.56;;;27.77;65.01
30339;BME280;795;49.296;11.348;2023-06-22T08:08:45;96451.38;;;27.99;67.62
30339;BME280;795;49.296;11.348;2023-06-22T08:11:15;96453.78;;;28.51;66.06
30339;BME280;795;49.296;11.348;2023-06-22T08:13:42;96454.25;;;28.83;66.61
30339;BME280;795;49.296;11.348;2023-06-22T08:16:09;96458.91;;;28.92;62.95
30339;BME280;795;49.296;11.348;2023-06-22T08:18:36;96455.66;;;29.73;60.20
30339;BME280;795;49.296;11.348;2023-06-22T08:21:03;96385.50;;;29.15;59.19
30339;BME280;795;49.296;11.348;2023-06-22T08:23:32;96455.66;;;29.34;58.52
30339;BME280;795;49.296;11.348;2023-06-22T08:25:59;96420.28;;;29.65;55.99
30339;BME280;795;49.296;11.348;2023-06-22T08:28:26;96420.16;;;29.46;55.75
30339;BME280;795;49.296;11.348;2023-06-22T08:30:53;96446.63;;;29.57;55.24
30339;BME280;795;49.296;11.348;2023-06-22T08:33:22;96405.94;;;29.58;54.67
30339;BME280;795;49.296;11.348;2023-06-22T08:35:55;96411.91;;;29.41;55.13
30339;BME280;795;49.296;11.348;2023-06-22T08:38:22;96452.41;;;30.29;53.92
30339;BME280;795;49.296;11.348;2023-06-22T08:40:49;96428.56;;;30.33;52.93
30339;BME280;795;49.296;11.348;2023-06-22T08:43:16;96391.44;;;30.57;52.55
30339;BME280;795;49.296;11.348;2023-06-22T08:45:43;96430.59;;;31.35;50.87
30339;BME280;795;49.296;11.348;2023-06-22T08:48:11;96447.41;;;31.81;49.17
30339;BME280;795;49.296;11.348;2023-06-22T08:50:38;96422.78;;;31.00;49.14
30339;BME280;795;49.296;11.348;2023-06-22T08:53:07;96452.78;;;31.17;49.90
30339;BME280;795;49.296;11.348;2023-06-22T08:55:34;96416.94;;;31.20;48.98
30339;BME280;795;49.296;11.348;2023-06-22T08:58:03;96352.41;;;31.15;48.91
30339;BME280;795;49.296;11.348;2023-06-22T09:00:32;96450.56;;;31.75;47.34
30339;BME280;795;49.296;11.348;2023-06-22T09:03:01;96449.69;;;31.61;48.00
30339;BME280;795;49.296;11.348;2023-06-22T09:05:30;96456.81;;;32.18;47.17
30339;BME280;795;49.296;11.348;2023-06-22T09:07:57;96445.31;;;31.55;48.12
30339;BME280;795;49.296;11.348;2023-06-22T09:10:26;96441.50;;;31.32;47.24
30339;BME280;795;49.296;11.348;2023-06-22T09:12:53;96445.63;;;31.53;47.59
30339;BME280;795;49.296;11.348;2023-06-22T09:15:21;96448.72;;;32.02;46.64
30339;BME280;795;49.296;11.348;2023-06-22T09:17:48;96438.75;;;32.01;46.45
30339;BME280;795;49.296;11.348;2023-06-22T09:20:15;96404.44;;;31.23;47.38
30339;BME280;795;49.296;11.348;2023-06-22T09:22:42;96445.38;;;31.31;47.41
30339;BME280;795;49.296;11.348;2023-06-22T09:25:09;96438.34;;;31.57;47.30
30339;BME280;795;49.296;11.348;2023-06-22T09:27:37;96445.22;;;31.22;46.18
30339;BME280;795;49.296;11.348;2023-06-22T09:30:06;96421.00;;;31.65;46.65
30339;BME280;795;49.296;11.348;2023-06-22T09:32:34;96369.72;;;31.63;47.60
30339;BME280;795;49.296;11.348;2023-06-22T09:35:05;96400.00;;;31.78;48.46
30339;BME280;795;49.296;11.348;2023-06-22T09:37:33;96418.50;;;32.14;45.68
30339;BME280;795;49.296;11.348;2023-06-22T09:40:01;96393.34;;;31.92;45.68
30339;BME280;795;49.296;11.348;2023-06-22T09:42:28;96421.69;;;32.08;45.19
30339;BME280;795;49.296;11.348;2023-06-22T09:44:55;96400.13;;;32.19;45.06
30339;BME280;795;49.296;11.348;2023-06-22T09:47:22;96386.91;;;32.10;44.76
30339;BME280;795;49.296;11.348;2023-06-22T09:49:49;96409.44;;;32.68;45.35
30339;BME280;795;49.296;11.348;2023-06-22T09:52:17;96345.91;;;32.62;43.87
30339;BME280;795;49.296;11.348;2023-06-22T09:54:44;96397.09;;;33.37;44.01
30339;BME280;795;49.296;11.348;2023-06-22T09:57:11;96347.84;;;32.75;43.65
30339;BME280;795;49.296;11.348;2023-06-22T09:59:40;96389.00;;;33.14;43.67
30339;BME280;795;49.296;11.348;2023-06-22T10:02:08;96362.06;;;32.19;44.21
30339;BME280;795;49.296;11.348;2023-06-22T10:04:36;96390.44;;;32.30;44.81
30339;BME280;795;49.296;11.348;2023-06-22T10:07:04;96373.34;;;32.09;44.68
30339;BME280;795;49.296;11.348;2023-06-22T10:09:31;96330.47;;;32.69;44.47
30339;BME280;795;49.296;11.348;2023-06-22T10:11:58;96371.81;;;32.98;44.25
30339;BME280;795;49.296;11.348;2023-06-22T10:14:25;96340.66;;;32.74;43.32
30339;BME280;795;49.296;11.348;2023-06-22T10:16:54;96364.44;;;33.29;44.06
30339;BME280;795;49.296;11.348;2023-06-22T10:19:23;96351.09;;;33.18;43.55
30339;BME280;795;49.296;11.348;2023-06-22T10:21:50;96306.06;;;32.66;43.38
30339;BME280;795;49.296;11.348;2023-06-22T10:24:17;96352.28;;;32.76;44.07
30339;BME280;795;49.296;11.348;2023-06-22T10:26:44;96338.69;;;32.34;43.86
30339;BME280;795;49.296;11.348;2023-06-22T10:29:11;96350.91;;;32.87;42.72
30339;BME280;795;49.296;11.348;2023-06-22T10:31:43;96326.97;;;33.00;42.73
30339;BME280;795;49.296;11.348;2023-06-22T10:34:10;96324.41;;;33.39;42.98
30339;BME280;795;49.296;11.348;2023-06-22T10:36:38;96316.09;;;33.03;42.89
30339;BME280;795;49.296;11.348;2023-06-22T10:39:06;96318.34;;;33.37;42.46
30339;BME280;795;49.296;11.348;2023-06-22T10:41:33;96350.38;;;34.23;40.39
30339;BME280;795;49.296;11.348;2023-06-22T10:44:00;96343.69;;;34.72;40.07
30339;BME280;795;49.296;11.348;2023-06-22T10:46:27;96339.13;;;34.06;40.67
30339;BME280;795;49.296;11.348;2023-06-22T10:48:54;96336.66;;;33.74;41.22
30339;BME280;795;49.296;11.348;2023-06-22T10:51:24;96320.97;;;34.09;39.99
30339;BME280;795;49.296;11.348;2023-06-22T10:53:51;96345.16;;;34.30;40.22
30339;BME280;795;49.296;11.348;2023-06-22T10:56:18;96356.75;;;35.02;39.85
30339;BME280;795;49.296;11.348;2023-06-22T10:58:46;96327.03;;;35.06;37.86
30339;BME280;795;49.296;11.348;2023-06-22T11:01:13;96367.16;;;35.36;38.78
30339;BME280;795;49.296;11.348;2023-06-22T11:04:00;96353.75;;;34.90;37.88
30339;BME280;795;49.296;11.348;2023-06-22T11:06:28;96354.47;;;35.81;39.04
30339;BME280;795;49.296;11.348;2023-06-22T11:08:55;96376.19;;;36.02;37.82
30339;BME280;795;49.296;11.348;2023-06-22T11:11:42;96368.00;;;36.81;37.43
30339;BME280;795;49.296;11.348;2023-06-22T11:14:09;96352.56;;;36.75;36.16
30339;BME280;795;49.296;11.348;2023-06-22T11:16:36;96367.03;;;37.35;35.33
30339;BME280;795;49.296;11.348;2023-06-22T11:19:05;96376.63;;;37.05;36.85
30339;BME280;795;49.296;11.348;2023-06-22T11:21:32;96368.66;;;37.15;36.13
30339;BME280;795;49.296;11.348;2023-06-22T11:24:00;96349.09;;;37.57;34.86
30339;BME280;795;49.296;11.348;2023-06-22T11:26:27;96376.13;;;37.94;34.49
30339;BME280;795;49.296;11.348;2023-06-22T11:28:54;96373.72;;;38.49;32.15
30339;BME280;795;49.296;11.348;2023-06-22T11:31:21;96328.50;;;38.51;33.36
30339;BME280;795;49.296;11.348;2023-06-22T11:33:53;96367.75;;;38.39;30.99
30339;BME280;795;49.296;11.348;2023-06-22T11:36:20;96372.59;;;38.87;31.08
30339;BME280;795;49.296;11.348;2023-06-22T11:38:47;96345.66;;;38.49;31.02
30339;BME280;795;49.296;11.348;2023-06-22T11:41:14;96352.97;;;38.87;33.16
30339;BME280;795;49.296;11.348;2023-06-22T11:43:41;96355.84;;;38.66;33.95
30339;BME280;795;49.296;11.348;2023-06-22T11:46:08;96348.22;;;37.77;34.89
30339;BME280;795;49.296;11.348;2023-06-22T11:48:35;96345.44;;;37.15;34.93
30339;BME280;795;49.296;11.348;2023-06-22T11:51:03;96333.28;;;37.73;34.82
30339;BME280;795;49.296;11.348;2023-06-22T11:53:30;96274.91;;;39.17;32.94
30339;BME280;795;49.296;11.348;2023-06-22T11:55:57;96311.47;;;39.32;32.46
30339;BME280;795;49.296;11.348;2023-06-22T11:58:24;96265.41;;;39.09;32.52
30339;BME280;795;49.296;11.348;2023-06-22T12:00:51;96291.56;;;38.73;33.25
30339;BME280;795;49.296;11.348;2023-06-22T12:03:20;96308.59;;;38.32;33.25
30339;BME280;795;49.296;11.348;2023-06-22T12:05:50;96318.56;;;38.66;33.40
30339;BME280;795;49.296;11.348;2023-06-22T12:08:19;96295.06;;;38.01;33.94
30339;BME280;795;49.296;11.348;2023-06-22T12:10:46;96282.78;;;37.61;34.65
30339;BME280;795;49.296;11.348;2023-06-22T12:13:13;96199.47;;;37.16;35.47
30339;BME280;795;49.296;11.348;2023-06-22T12:15:40;96240.94;;;37.88;34.82
30339;BME280;795;49.296;11.348;2023-06-22T12:18:07;96290.94;;;38.68;33.65
30339;BME280;795;49.296;11.348;2023-06-22T12:20:35;96278.22;;;39.34;31.58
30339;BME280;795;49.296;11.348;2023-06-22T12:23:03;96274.34;;;38.63;32.68
30339;BME280;795;49.296;11.348;2023-06-22T12:25:30;96263.69;;;38.20;32.31
30339;BME280;795;49.296;11.348;2023-06-22T12:27:56;96207.59;;;37.63;34.04
30339;BME280;795;49.296;11.348;2023-06-22T12:30:24;96254.19;;;37.88;34.57
30339;BME280;795;49.296;11.348;2023-06-22T12:32:52;96232.50;;;38.45;32.83
30339;BME280;795;49.296;11.348;2023-06-22T12:35:22;96227.72;;;37.77;33.34
30339;BME280;795;49.296;11.348;2023-06-22T12:37:49;96222.78;;;38.19;32.71
30339;BME280;795;49.296;11.348;2023-06-22T12:40:16;96232.94;;;38.23;31.51
30339;BME280;795;49.296;11.348;2023-06-22T12:42:46;96191.56;;;37.96;32.07
30339;BME280;795;49.296;11.348;2023-06-22T12:45:15;96211.69;;;37.33;34.15
30339;BME280;795;49.296;11.348;2023-06-22T12:47:42;96203.16;;;37.50;34.57
30339;BME280;795;49.296;11.348;2023-06-22T12:50:12;96189.34;;;38.26;31.97
30339;BME280;795;49.296;11.348;2023-06-22T12:52:41;96218.47;;;38.58;31.26
30339;BME280;795;49.296;11.348;2023-06-22T12:55:08;96193.38;;;37.02;32.46
30339;BME280;795;49.296;11.348;2023-06-22T12:57:35;96215.69;;;37.76;31.74
30339;BME280;795;49.296;11.348;2023-06-22T13:00:03;96227.47;;;38.75;30.46
30339;BME280;795;49.296;11.348;2023-06-22T13:02:31;96228.88;;;39.49;28.12
30339;BME280;795;49.296;11.348;2023-06-22T13:04:58;96235.97;;;38.91;28.49
30339;BME280;795;49.296;11.348;2023-06-22T13:07:26;96228.69;;;39.02;29.96
30339;BME280;795;49.296;11.348;2023-06-22T13:09:53;96216.09;;;38.84;29.15
30339;BME280;795;49.296;11.348;2023-06-22T13:12:20;96188.19;;;38.75;28.94
30339;BME280;795;49.296;11.348;2023-06-22T13:14:48;96169.75;;;38.38;28.93